sensor_id;sensor_type;location;lat;lon;timestamp;pressure;altitude;pressure_sealevel;temperature;humidity
70250;BME280;57644;48.416;-123.374;2022-09-09T00:00:55;102149.95;;;11.88;56.38
70250;BME280;57644;48.416;-123.374;2022-09-09T00:03:26;102145.98;;;11.91;56.17
70250;BME280;57644;48.416;-123.374;2022-09-09T00:05:57;102140.88;;;11.96;55.96
70250;BME280;57644;48.416;-123.374;2022-09-09T00:08:25;102139.64;;;11.93;55.55
70250;BME280;57644;48.416;-123.374;2022-09-09T00:10:56;102140.63;;;11.95;55.47
70250;BME280;57644;48.416;-123.374;2022-09-09T00:13:24;102138.87;;;11.93;55.16
70250;BME280;57644;48.416;-123.374;2022-09-09T00:16:00;102138.42;;;11.93;55.00
70250;BME280;57644;48.416;-123.374;2022-09-09T00:18:27;102136.66;;;11.91;55.63
70250;BME280;57644;48.416;-123.374;2022-09-09T00:20:57;102135.48;;;11.98;55.54
70250;BME280;57644;48.416;-123.374;2022-09-09T00:23:27;102132.24;;;12.01;55.53
70250;BME280;57644;48.416;-123.374;2022-09-09T00:25:59;102129.56;;;12.04;55.53
70250;BME280;57644;48.416;-123.374;2022-09-09T00:28:26;102128.10;;;12.05;55.26
70250;BME280;57644;48.416;-123.374;2022-09-09T00:30:55;102125.05;;;12.03;55.43
70250;BME280;57644;48.416;-123.374;2022-09-09T00:33:24;102126.15;;;12.00;55.50
70250;BME280;57644;48.416;-123.374;2022-09-09T00:35:57;102121.72;;;11.97;55.88
70250;BME280;57644;48.416;-123.374;2022-09-09T00:38:27;102117.19;;;11.94;56.12
70250;BME280;57644;48.416;-123.374;2022-09-09T00:41:01;102112.64;;;11.95;56.30
70250;BME280;57644;48.416;-123.374;2022-09-09T00:43:28;102107.12;;;11.95;56.44
70250;BME280;57644;48.416;-123.374;2022-09-09T00:48:31;102106.69;;;11.92;56.67
70250;BME280;57644;48.416;-123.374;2022-09-09T00:50:59;102104.28;;;11.94;56.75
70250;BME280;57644;48.416;-123.374;2022-09-09T00:53:36;102102.04;;;11.90;56.79
70250;BME280;57644;48.416;-123.374;2022-09-09T00:56:03;102101.79;;;11.93;56.75
70250;BME280;57644;48.416;-123.374;2022-09-09T00:58:27;102095.80;;;11.93;56.85
70250;BME280;57644;48.416;-123.374;2022-09-09T01:01:00;102093.57;;;11.94;56.46
70250;BME280;57644;48.416;-123.374;2022-09-09T01:03:34;102093.41;;;11.89;56.33
70250;BME280;57644;48.416;-123.374;2022-09-09T01:06:11;102092.63;;;11.86;56.55
70250;BME280;57644;48.416;-123.374;2022-09-09T01:11:00;102086.56;;;11.85;56.11
70250;BME280;57644;48.416;-123.374;2022-09-09T01:13:32;102085.81;;;11.83;56.01
70250;BME280;57644;48.416;-123.374;2022-09-09T01:16:02;102080.12;;;11.81;56.01
70250;BME280;57644;48.416;-123.374;2022-09-09T01:18:34;102080.46;;;11.78;56.07
70250;BME280;57644;48.416;-123.374;2022-09-09T01:21:07;102080.97;;;11.77;55.89
70250;BME280;57644;48.416;-123.374;2022-09-09T01:23:43;102078.27;;;11.66;56.28
70250;BME280;57644;48.416;-123.374;2022-09-09T01:26:13;102076.48;;;11.64;56.30
70250;BME280;57644;48.416;-123.374;2022-09-09T01:28:34;102075.33;;;11.57;56.20
70250;BME280;57644;48.416;-123.374;2022-09-09T01:31:04;102071.05;;;11.53;56.14
70250;BME280;57644;48.416;-123.374;2022-09-09T01:33:33;102071.40;;;11.48;56.26
70250;BME280;57644;48.416;-123.374;2022-09-09T01:36:08;102067.98;;;11.37;56.00
70250;BME280;57644;48.416;-123.374;2022-09-09T01:38:34;102070.18;;;11.40;55.43
70250;BME280;57644;48.416;-123.374;2022-09-09T01:41:04;102066.17;;;11.39;55.55
70250;BME280;57644;48.416;-123.374;2022-09-09T01:43:34;102065.01;;;11.34;55.87
70250;BME280;57644;48.416;-123.374;2022-09-09T01:46:04;102062.48;;;11.27;55.78
70250;BME280;57644;48.416;-123.374;2022-09-09T01:48:35;102063.25;;;11.27;55.73
70250;BME280;57644;48.416;-123.374;2022-09-09T01:51:05;102060.33;;;11.28;55.55
70250;BME280;57644;48.416;-123.374;2022-09-09T01:56:14;102054.16;;;11.20;54.74
70250;BME280;57644;48.416;-123.374;2022-09-09T01:58:45;102057.64;;;11.18;54.52
70250;BME280;57644;48.416;-123.374;2022-09-09T02:01:11;102053.64;;;11.06;54.24
70250;BME280;57644;48.416;-123.374;2022-09-09T02:03:36;102050.63;;;11.04;54.33
70250;BME280;57644;48.416;-123.374;2022-09-09T02:06:14;102048.17;;;11.09;54.32
70250;BME280;57644;48.416;-123.374;2022-09-09T02:08:42;102047.59;;;11.08;54.32
70250;BME280;57644;48.416;-123.374;2022-09-09T02:11:13;102046.19;;;11.06;54.51
70250;BME280;57644;48.416;-123.374;2022-09-09T02:13:39;102047.58;;;11.07;54.79
70250;BME280;57644;48.416;-123.374;2022-09-09T02:16:11;102046.00;;;11.05;55.02
70250;BME280;57644;48.416;-123.374;2022-09-09T02:18:43;102040.12;;;11.04;55.04
70250;BME280;57644;48.416;-123.374;2022-09-09T02:21:08;102039.18;;;11.05;55.07
70250;BME280;57644;48.416;-123.374;2022-09-09T02:23:48;102034.46;;;11.07;55.12
70250;BME280;57644;48.416;-123.374;2022-09-09T02:26:11;102036.52;;;11.06;55.28
70250;BME280;57644;48.416;-123.374;2022-09-09T02:28:40;102032.25;;;11.04;55.49
70250;BME280;57644;48.416;-123.374;2022-09-09T02:31:10;102029.77;;;11.01;55.66
70250;BME280;57644;48.416;-123.374;2022-09-09T02:33:45;102025.29;;;10.95;55.75
70250;BME280;57644;48.416;-123.374;2022-09-09T02:36:12;102018.60;;;10.89;55.88
70250;BME280;57644;48.416;-123.374;2022-09-09T02:38:45;102020.31;;;10.84;56.19
70250;BME280;57644;48.416;-123.374;2022-09-09T02:41:11;102020.39;;;10.80;56.41
70250;BME280;57644;48.416;-123.374;2022-09-09T02:43:42;102025.71;;;10.77;56.48
70250;BME280;57644;48.416;-123.374;2022-09-09T02:46:23;102024.75;;;10.73;56.55
70250;BME280;57644;48.416;-123.374;2022-09-09T02:48:51;102023.13;;;10.69;56.65
70250;BME280;57644;48.416;-123.374;2022-09-09T02:51:18;102018.87;;;10.68;56.78
70250;BME280;57644;48.416;-123.374;2022-09-09T02:53:47;102018.01;;;10.65;56.88
70250;BME280;57644;48.416;-123.374;2022-09-09T02:56:17;102015.37;;;10.65;56.93
70250;BME280;57644;48.416;-123.374;2022-09-09T02:58:43;102015.33;;;10.64;56.97
70250;BME280;57644;48.416;-123.374;2022-09-09T03:01:13;102016.08;;;10.61;57.06
70250;BME280;57644;48.416;-123.374;2022-09-09T03:03:44;102012.90;;;10.56;57.34
70250;BME280;57644;48.416;-123.374;2022-09-09T03:06:15;102012.26;;;10.52;57.50
70250;BME280;57644;48.416;-123.374;2022-09-09T03:08:45;102016.06;;;10.47;57.68
70250;BME280;57644;48.416;-123.374;2022-09-09T03:11:15;102018.66;;;10.44;57.88
70250;BME280;57644;48.416;-123.374;2022-09-09T03:13:46;102021.35;;;10.40;58.09
70250;BME280;57644;48.416;-123.374;2022-09-09T03:16:16;102021.27;;;10.32;58.21
70250;BME280;57644;48.416;-123.374;2022-09-09T03:18:47;102019.82;;;10.27;58.44
70250;BME280;57644;48.416;-123.374;2022-09-09T03:21:18;102018.79;;;10.26;58.37
70250;BME280;57644;48.416;-123.374;2022-09-09T03:23:47;102015.53;;;10.26;58.34
70250;BME280;57644;48.416;-123.374;2022-09-09T03:26:17;102013.44;;;10.25;58.25
70250;BME280;57644;48.416;-123.374;2022-09-09T03:28:47;102014.63;;;10.24;58.31
70250;BME280;57644;48.416;-123.374;2022-09-09T03:31:18;102016.48;;;10.22;58.33
70250;BME280;57644;48.416;-123.374;2022-09-09T03:33:49;102012.57;;;10.19;58.39
70250;BME280;57644;48.416;-123.374;2022-09-09T03:36:19;102016.58;;;10.18;58.61
70250;BME280;57644;48.416;-123.374;2022-09-09T03:38:49;102013.30;;;10.15;58.69
70250;BME280;57644;48.416;-123.374;2022-09-09T03:41:20;102007.04;;;10.14;58.82
70250;BME280;57644;48.416;-123.374;2022-09-09T03:43:55;102005.49;;;10.10;58.95
70250;BME280;57644;48.416;-123.374;2022-09-09T03:46:22;102003.96;;;10.09;58.96
70250;BME280;57644;48.416;-123.374;2022-09-09T03:48:50;102004.24;;;10.07;59.14
70250;BME280;57644;48.416;-123.374;2022-09-09T03:51:28;102005.33;;;10.04;59.29
70250;BME280;57644;48.416;-123.374;2022-09-09T03:53:51;102003.42;;;9.96;59.53
70250;BME280;57644;48.416;-123.374;2022-09-09T03:56:23;102004.65;;;9.97;59.53
70250;BME280;57644;48.416;-123.374;2022-09-09T03:58:52;102004.01;;;9.93;59.75
70250;BME280;57644;48.416;-123.374;2022-09-09T04:01:22;102008.39;;;9.88;60.04
70250;BME280;57644;48.416;-123.374;2022-09-09T04:03:53;102005.22;;;9.83;60.44
70250;BME280;57644;48.416;-123.374;2022-09-09T04:06:23;102004.85;;;9.76;60.50
70250;BME280;57644;48.416;-123.374;2022-09-09T04:08:53;102003.66;;;9.70;60.73
70250;BME280;57644;48.416;-123.374;2022-09-09T04:11:24;102000.74;;;9.63;61.20
70250;BME280;57644;48.416;-123.374;2022-09-09T04:13:54;102000.90;;;9.55;61.73
70250;BME280;57644;48.416;-123.374;2022-09-09T04:16:24;101994.01;;;9.51;61.90
70250;BME280;57644;48.416;-123.374;2022-09-09T04:18:55;101993.45;;;9.48;62.14
70250;BME280;57644;48.416;-123.374;2022-09-09T04:21:25;101994.37;;;9.47;62.38
70250;BME280;57644;48.416;-123.374;2022-09-09T04:23:55;101991.61;;;9.44;62.52
70250;BME280;57644;48.416;-123.374;2022-09-09T04:26:26;101990.85;;;9.38;62.93
70250;BME280;57644;48.416;-123.374;2022-09-09T04:28:56;101988.20;;;9.32;63.10
70250;BME280;57644;48.416;-123.374;2022-09-09T04:31:26;101986.38;;;9.21;63.72
70250;BME280;57644;48.416;-123.374;2022-09-09T04:33:57;101984.80;;;9.18;63.40
70250;BME280;57644;48.416;-123.374;2022-09-09T04:36:27;101989.71;;;9.19;63.78
70250;BME280;57644;48.416;-123.374;2022-09-09T04:38:57;101989.02;;;9.19;63.86
70250;BME280;57644;48.416;-123.374;2022-09-09T04:41:28;101987.44;;;9.15;64.14
70250;BME280;57644;48.416;-123.374;2022-09-09T04:43:58;101986.72;;;9.15;64.13
70250;BME280;57644;48.416;-123.374;2022-09-09T04:46:30;101990.14;;;9.16;64.29
70250;BME280;57644;48.416;-123.374;2022-09-09T04:48:59;101989.63;;;9.18;64.31
70250;BME280;57644;48.416;-123.374;2022-09-09T04:51:30;101988.80;;;9.18;64.14
70250;BME280;57644;48.416;-123.374;2022-09-09T04:54:00;101993.68;;;9.08;64.38
70250;BME280;57644;48.416;-123.374;2022-09-09T04:56:31;101993.61;;;9.05;64.56
70250;BME280;57644;48.416;-123.374;2022-09-09T04:59:01;101994.88;;;9.00;64.81
70250;BME280;57644;48.416;-123.374;2022-09-09T05:01:31;101993.81;;;9.01;65.09
70250;BME280;57644;48.416;-123.374;2022-09-09T05:04:16;101997.30;;;9.04;64.66
70250;BME280;57644;48.416;-123.374;2022-09-09T05:06:32;101991.76;;;9.05;64.90
70250;BME280;57644;48.416;-123.374;2022-09-09T05:09:03;101987.56;;;9.06;64.91
70250;BME280;57644;48.416;-123.374;2022-09-09T05:11:33;101980.74;;;9.05;64.92
70250;BME280;57644;48.416;-123.374;2022-09-09T05:14:04;101980.04;;;9.05;65.12
70250;BME280;57644;48.416;-123.374;2022-09-09T05:16:33;101979.02;;;9.08;64.96
70250;BME280;57644;48.416;-123.374;2022-09-09T05:19:03;101977.64;;;9.08;64.98
70250;BME280;57644;48.416;-123.374;2022-09-09T05:21:33;101978.09;;;9.05;65.05
70250;BME280;57644;48.416;-123.374;2022-09-09T05:24:04;101975.79;;;9.06;65.25
70250;BME280;57644;48.416;-123.374;2022-09-09T05:26:47;101977.07;;;9.03;65.48
70250;BME280;57644;48.416;-123.374;2022-09-09T05:29:05;101975.46;;;9.03;65.37
70250;BME280;57644;48.416;-123.374;2022-09-09T05:31:35;101974.70;;;9.02;65.57
70250;BME280;57644;48.416;-123.374;2022-09-09T05:34:05;101973.16;;;9.02;65.66
70250;BME280;57644;48.416;-123.374;2022-09-09T05:36:36;101975.31;;;9.03;65.59
70250;BME280;57644;48.416;-123.374;2022-09-09T05:39:06;101972.59;;;8.99;65.68
70250;BME280;57644;48.416;-123.374;2022-09-09T05:41:36;101969.54;;;8.96;65.76
70250;BME280;57644;48.416;-123.374;2022-09-09T05:44:06;101965.10;;;8.93;65.82
70250;BME280;57644;48.416;-123.374;2022-09-09T05:46:37;101964.92;;;8.92;65.76
70250;BME280;57644;48.416;-123.374;2022-09-09T05:49:07;101966.57;;;8.89;65.82
70250;BME280;57644;48.416;-123.374;2022-09-09T05:51:38;101966.23;;;8.83;65.84
70250;BME280;57644;48.416;-123.374;2022-09-09T05:54:08;101968.86;;;8.78;66.15
70250;BME280;57644;48.416;-123.374;2022-09-09T05:56:38;101966.04;;;8.78;66.15
70250;BME280;57644;48.416;-123.374;2022-09-09T05:59:09;101969.36;;;8.77;66.13
70250;BME280;57644;48.416;-123.374;2022-09-09T06:01:39;101970.13;;;8.73;66.32
70250;BME280;57644;48.416;-123.374;2022-09-09T06:04:09;101964.54;;;8.65;66.55
70250;BME280;57644;48.416;-123.374;2022-09-09T06:06:40;101966.41;;;8.61;66.73
70250;BME280;57644;48.416;-123.374;2022-09-09T06:09:10;101967.92;;;8.56;66.80
70250;BME280;57644;48.416;-123.374;2022-09-09T06:11:41;101963.19;;;8.50;66.97
70250;BME280;57644;48.416;-123.374;2022-09-09T06:14:11;101968.91;;;8.49;66.93
70250;BME280;57644;48.416;-123.374;2022-09-09T06:16:41;101961.19;;;8.43;67.19
70250;BME280;57644;48.416;-123.374;2022-09-09T06:19:12;101957.05;;;8.34;67.52
70250;BME280;57644;48.416;-123.374;2022-09-09T06:21:42;101958.81;;;8.32;67.56
70250;BME280;57644;48.416;-123.374;2022-09-09T06:24:12;101959.54;;;8.25;68.22
70250;BME280;57644;48.416;-123.374;2022-09-09T06:26:42;101958.57;;;8.20;68.20
70250;BME280;57644;48.416;-123.374;2022-09-09T06:29:13;101955.82;;;8.17;68.38
70250;BME280;57644;48.416;-123.374;2022-09-09T06:31:43;101957.58;;;8.04;68.53
70250;BME280;57644;48.416;-123.374;2022-09-09T06:34:14;101958.26;;;7.99;68.93
70250;BME280;57644;48.416;-123.374;2022-09-09T06:36:44;101962.01;;;7.99;68.76
70250;BME280;57644;48.416;-123.374;2022-09-09T06:39:14;101959.49;;;7.97;68.90
70250;BME280;57644;48.416;-123.374;2022-09-09T06:41:45;101955.94;;;7.90;68.88
70250;BME280;57644;48.416;-123.374;2022-09-09T06:44:15;101955.22;;;7.88;69.06
70250;BME280;57644;48.416;-123.374;2022-09-09T06:46:45;101952.69;;;7.87;69.42
70250;BME280;57644;48.416;-123.374;2022-09-09T06:49:16;101952.32;;;7.84;69.45
70250;BME280;57644;48.416;-123.374;2022-09-09T06:51:46;101953.14;;;7.82;69.44
70250;BME280;57644;48.416;-123.374;2022-09-09T06:54:16;101952.94;;;7.78;69.57
70250;BME280;57644;48.416;-123.374;2022-09-09T06:56:47;101953.99;;;7.77;69.62
70250;BME280;57644;48.416;-123.374;2022-09-09T06:59:17;101953.81;;;7.79;69.64
70250;BME280;57644;48.416;-123.374;2022-09-09T07:01:48;101953.43;;;7.78;69.70
70250;BME280;57644;48.416;-123.374;2022-09-09T07:04:18;101956.25;;;7.76;69.59
70250;BME280;57644;48.416;-123.374;2022-09-09T07:06:48;101954.14;;;7.73;69.75
70250;BME280;57644;48.416;-123.374;2022-09-09T07:09:19;101952.76;;;7.68;69.96
70250;BME280;57644;48.416;-123.374;2022-09-09T07:11:51;101952.65;;;7.67;70.12
70250;BME280;57644;48.416;-123.374;2022-09-09T07:14:23;101946.24;;;7.66;70.02
70250;BME280;57644;48.416;-123.374;2022-09-09T07:16:50;101946.63;;;7.68;70.01
70250;BME280;57644;48.416;-123.374;2022-09-09T07:19:20;101948.28;;;7.68;70.11
70250;BME280;57644;48.416;-123.374;2022-09-09T07:21:51;101950.96;;;7.69;70.07
70250;BME280;57644;48.416;-123.374;2022-09-09T07:24:21;101954.65;;;7.68;70.10
70250;BME280;57644;48.416;-123.374;2022-09-09T07:26:51;101958.47;;;7.69;69.90
70250;BME280;57644;48.416;-123.374;2022-09-09T07:29:22;101962.38;;;7.74;69.69
70250;BME280;57644;48.416;-123.374;2022-09-09T07:31:56;101961.27;;;7.73;69.67
70250;BME280;57644;48.416;-123.374;2022-09-09T07:34:22;101959.37;;;7.70;69.98
70250;BME280;57644;48.416;-123.374;2022-09-09T07:36:53;101962.22;;;7.59;70.46
70250;BME280;57644;48.416;-123.374;2022-09-09T07:39:23;101969.93;;;7.47;70.56
70250;BME280;57644;48.416;-123.374;2022-09-09T07:41:54;101966.01;;;7.35;70.91
70250;BME280;57644;48.416;-123.374;2022-09-09T07:44:25;101970.03;;;7.30;71.55
70250;BME280;57644;48.416;-123.374;2022-09-09T07:46:54;101969.09;;;7.30;71.41
70250;BME280;57644;48.416;-123.374;2022-09-09T07:51:55;101969.15;;;7.30;71.23
70250;BME280;57644;48.416;-123.374;2022-09-09T07:54:25;101974.35;;;7.30;71.36
70250;BME280;57644;48.416;-123.374;2022-09-09T07:56:56;101968.67;;;7.32;71.45
70250;BME280;57644;48.416;-123.374;2022-09-09T07:59:26;101973.62;;;7.33;71.39
70250;BME280;57644;48.416;-123.374;2022-09-09T08:01:57;101969.98;;;7.34;71.54
70250;BME280;57644;48.416;-123.374;2022-09-09T08:04:27;101974.93;;;7.27;71.63
70250;BME280;57644;48.416;-123.374;2022-09-09T08:06:59;101974.07;;;7.29;71.48
70250;BME280;57644;48.416;-123.374;2022-09-09T08:09:28;101964.05;;;7.33;71.48
70250;BME280;57644;48.416;-123.374;2022-09-09T08:11:58;101962.60;;;7.31;71.28
70250;BME280;57644;48.416;-123.374;2022-09-09T08:14:28;101966.05;;;7.32;71.48
70250;BME280;57644;48.416;-123.374;2022-09-09T08:16:59;101968.13;;;7.37;71.51
70250;BME280;57644;48.416;-123.374;2022-09-09T08:19:29;101968.99;;;7.41;71.21
70250;BME280;57644;48.416;-123.374;2022-09-09T08:21:59;101968.39;;;7.43;71.34
70250;BME280;57644;48.416;-123.374;2022-09-09T08:24:30;101964.97;;;7.43;71.32
70250;BME280;57644;48.416;-123.374;2022-09-09T08:27:00;101965.03;;;7.40;71.27
70250;BME280;57644;48.416;-123.374;2022-09-09T08:29:30;101968.73;;;7.39;71.35
70250;BME280;57644;48.416;-123.374;2022-09-09T08:32:01;101971.49;;;7.36;71.55
70250;BME280;57644;48.416;-123.374;2022-09-09T08:34:31;101971.71;;;7.33;71.82
70250;BME280;57644;48.416;-123.374;2022-09-09T08:37:02;101974.08;;;7.36;71.67
70250;BME280;57644;48.416;-123.374;2022-09-09T08:39:32;101973.34;;;7.41;71.47
70250;BME280;57644;48.416;-123.374;2022-09-09T08:42:17;101975.02;;;7.44;71.14
70250;BME280;57644;48.416;-123.374;2022-09-09T08:44:41;101977.06;;;7.47;70.90
70250;BME280;57644;48.416;-123.374;2022-09-09T08:47:08;101977.56;;;7.49;70.85
70250;BME280;57644;48.416;-123.374;2022-09-09T08:49:41;101976.95;;;7.48;71.01
70250;BME280;57644;48.416;-123.374;2022-09-09T08:52:09;101976.50;;;7.41;71.40
70250;BME280;57644;48.416;-123.374;2022-09-09T08:54:35;101980.81;;;7.40;71.48
70250;BME280;57644;48.416;-123.374;2022-09-09T08:57:11;101983.98;;;7.33;72.11
70250;BME280;57644;48.416;-123.374;2022-09-09T08:59:35;101980.17;;;7.27;72.45
70250;BME280;57644;48.416;-123.374;2022-09-09T09:02:14;101978.12;;;7.22;72.48
70250;BME280;57644;48.416;-123.374;2022-09-09T09:04:44;101975.41;;;7.15;72.67
70250;BME280;57644;48.416;-123.374;2022-09-09T09:07:16;101976.33;;;7.10;72.84
70250;BME280;57644;48.416;-123.374;2022-09-09T09:09:42;101980.45;;;7.03;73.13
70250;BME280;57644;48.416;-123.374;2022-09-09T09:12:15;101975.05;;;6.93;73.32
70250;BME280;57644;48.416;-123.374;2022-09-09T09:14:38;101975.38;;;6.84;73.44
70250;BME280;57644;48.416;-123.374;2022-09-09T09:17:12;101977.18;;;6.76;73.92
70250;BME280;57644;48.416;-123.374;2022-09-09T09:19:40;101979.34;;;6.73;73.92
70250;BME280;57644;48.416;-123.374;2022-09-09T09:22:14;101971.56;;;6.65;74.03
70250;BME280;57644;48.416;-123.374;2022-09-09T09:24:44;101968.36;;;6.63;74.50
70250;BME280;57644;48.416;-123.374;2022-09-09T09:27:14;101963.96;;;6.67;74.22
70250;BME280;57644;48.416;-123.374;2022-09-09T09:29:40;101962.69;;;6.70;74.13
70250;BME280;57644;48.416;-123.374;2022-09-09T09:32:13;101957.86;;;6.67;74.23
70250;BME280;57644;48.416;-123.374;2022-09-09T09:34:40;101948.65;;;6.69;74.16
70250;BME280;57644;48.416;-123.374;2022-09-09T09:37:15;101950.47;;;6.75;73.93
70250;BME280;57644;48.416;-123.374;2022-09-09T09:39:41;101952.96;;;6.75;73.75
70250;BME280;57644;48.416;-123.374;2022-09-09T09:42:12;101951.50;;;6.77;73.62
70250;BME280;57644;48.416;-123.374;2022-09-09T09:44:42;101946.57;;;6.77;73.79
70250;BME280;57644;48.416;-123.374;2022-09-09T09:47:14;101947.63;;;6.74;73.60
70250;BME280;57644;48.416;-123.374;2022-09-09T09:52:20;101945.62;;;6.65;73.84
70250;BME280;57644;48.416;-123.374;2022-09-09T09:54:43;101942.05;;;6.69;73.56
70250;BME280;57644;48.416;-123.374;2022-09-09T09:57:15;101936.44;;;6.72;73.36
70250;BME280;57644;48.416;-123.374;2022-09-09T09:59:44;101937.90;;;6.73;73.63
70250;BME280;57644;48.416;-123.374;2022-09-09T10:02:21;101933.58;;;6.74;73.39
70250;BME280;57644;48.416;-123.374;2022-09-09T10:04:44;101929.29;;;6.70;73.60
70250;BME280;57644;48.416;-123.374;2022-09-09T10:07:22;101923.31;;;6.67;73.75
70250;BME280;57644;48.416;-123.374;2022-09-09T10:09:45;101924.91;;;6.71;73.73
70250;BME280;57644;48.416;-123.374;2022-09-09T10:12:24;101930.26;;;6.71;73.65
70250;BME280;57644;48.416;-123.374;2022-09-09T10:14:51;101925.22;;;6.74;73.47
70250;BME280;57644;48.416;-123.374;2022-09-09T10:17:23;101924.78;;;6.75;73.58
70250;BME280;57644;48.416;-123.374;2022-09-09T10:22:26;101921.58;;;6.75;73.35
70250;BME280;57644;48.416;-123.374;2022-09-09T10:25:00;101924.14;;;6.70;73.98
70250;BME280;57644;48.416;-123.374;2022-09-09T10:27:23;101926.64;;;6.73;73.82
70250;BME280;57644;48.416;-123.374;2022-09-09T10:30:00;101924.50;;;6.76;73.76
70250;BME280;57644;48.416;-123.374;2022-09-09T10:32:29;101920.78;;;6.80;73.62
70250;BME280;57644;48.416;-123.374;2022-09-09T10:34:56;101918.86;;;6.84;73.31
70250;BME280;57644;48.416;-123.374;2022-09-09T10:37:29;101921.58;;;6.83;73.03
70250;BME280;57644;48.416;-123.374;2022-09-09T10:39:53;101920.02;;;6.83;73.07
70250;BME280;57644;48.416;-123.374;2022-09-09T10:42:26;101916.17;;;6.80;73.31
70250;BME280;57644;48.416;-123.374;2022-09-09T10:47:35;101916.41;;;6.81;73.07
70250;BME280;57644;48.416;-123.374;2022-09-09T10:50:00;101916.35;;;6.83;73.10
70250;BME280;57644;48.416;-123.374;2022-09-09T10:52:27;101920.74;;;6.84;72.88
70250;BME280;57644;48.416;-123.374;2022-09-09T10:54:57;101915.56;;;6.85;72.92
70250;BME280;57644;48.416;-123.374;2022-09-09T10:57:27;101915.86;;;6.87;72.91
70250;BME280;57644;48.416;-123.374;2022-09-09T10:59:55;101913.22;;;6.87;72.45
70250;BME280;57644;48.416;-123.374;2022-09-09T11:02:28;101911.33;;;6.83;72.38
70250;BME280;57644;48.416;-123.374;2022-09-09T11:04:57;101906.60;;;6.79;72.59
70250;BME280;57644;48.416;-123.374;2022-09-09T11:07:32;101908.61;;;6.77;72.39
70250;BME280;57644;48.416;-123.374;2022-09-09T11:09:59;101907.04;;;6.71;73.02
70250;BME280;57644;48.416;-123.374;2022-09-09T11:12:28;101902.70;;;6.72;72.70
70250;BME280;57644;48.416;-123.374;2022-09-09T11:15:01;101906.19;;;6.71;72.63
70250;BME280;57644;48.416;-123.374;2022-09-09T11:17:29;101904.79;;;6.68;72.68
70250;BME280;57644;48.416;-123.374;2022-09-09T11:19:58;101907.76;;;6.66;72.51
70250;BME280;57644;48.416;-123.374;2022-09-09T11:22:30;101911.59;;;6.66;72.69
70250;BME280;57644;48.416;-123.374;2022-09-09T11:25:00;101913.85;;;6.67;72.62
70250;BME280;57644;48.416;-123.374;2022-09-09T11:27:31;101914.72;;;6.66;72.55
70250;BME280;57644;48.416;-123.374;2022-09-09T11:30:11;101916.74;;;6.66;72.34
70250;BME280;57644;48.416;-123.374;2022-09-09T11:35:07;101915.59;;;6.71;72.28
70250;BME280;57644;48.416;-123.374;2022-09-09T11:37:43;101912.59;;;6.72;72.04
70250;BME280;57644;48.416;-123.374;2022-09-09T11:40:09;101914.83;;;6.70;72.04
70250;BME280;57644;48.416;-123.374;2022-09-09T11:42:30;101923.19;;;6.71;71.98
70250;BME280;57644;48.416;-123.374;2022-09-09T11:47:32;101919.10;;;6.65;72.30
70250;BME280;57644;48.416;-123.374;2022-09-09T11:50:10;101914.73;;;6.58;72.53
70250;BME280;57644;48.416;-123.374;2022-09-09T11:52:39;101916.16;;;6.55;72.61
70250;BME280;57644;48.416;-123.374;2022-09-09T11:55:10;101914.90;;;6.49;72.73
70250;BME280;57644;48.416;-123.374;2022-09-09T11:57:36;101913.31;;;6.51;72.59
70250;BME280;57644;48.416;-123.374;2022-09-09T12:00:05;101911.39;;;6.46;72.54
70250;BME280;57644;48.416;-123.374;2022-09-09T12:02:34;101915.24;;;6.44;72.54
70250;BME280;57644;48.416;-123.374;2022-09-09T12:05:07;101908.00;;;6.45;72.64
70250;BME280;57644;48.416;-123.374;2022-09-09T12:07:37;101906.56;;;6.47;72.54
70250;BME280;57644;48.416;-123.374;2022-09-09T12:12:37;101903.51;;;6.41;72.89
70250;BME280;57644;48.416;-123.374;2022-09-09T12:17:46;101895.81;;;6.44;72.99
70250;BME280;57644;48.416;-123.374;2022-09-09T12:20:14;101897.58;;;6.46;72.67
70250;BME280;57644;48.416;-123.374;2022-09-09T12:22:55;101899.12;;;6.49;72.54
70250;BME280;57644;48.416;-123.374;2022-09-09T12:25:17;101898.02;;;6.41;72.93
70250;BME280;57644;48.416;-123.374;2022-09-09T12:27:43;101898.63;;;6.40;72.83
70250;BME280;57644;48.416;-123.374;2022-09-09T12:30:11;101904.76;;;6.37;72.95
70250;BME280;57644;48.416;-123.374;2022-09-09T12:32:38;101899.05;;;6.39;72.98
70250;BME280;57644;48.416;-123.374;2022-09-09T12:35:13;101900.45;;;6.40;72.98
70250;BME280;57644;48.416;-123.374;2022-09-09T12:37:41;101903.43;;;6.44;72.86
70250;BME280;57644;48.416;-123.374;2022-09-09T12:40:19;101900.96;;;6.44;72.82
70250;BME280;57644;48.416;-123.374;2022-09-09T12:42:40;101901.17;;;6.39;72.97
70250;BME280;57644;48.416;-123.374;2022-09-09T12:45:16;101907.30;;;6.31;73.18
70250;BME280;57644;48.416;-123.374;2022-09-09T12:47:43;101902.93;;;6.36;73.11
70250;BME280;57644;48.416;-123.374;2022-09-09T12:50:17;101897.56;;;6.38;73.06
70250;BME280;57644;48.416;-123.374;2022-09-09T12:52:41;101897.52;;;6.38;73.04
70250;BME280;57644;48.416;-123.374;2022-09-09T12:55:18;101896.68;;;6.38;73.02
70250;BME280;57644;48.416;-123.374;2022-09-09T12:57:43;101897.92;;;6.37;72.92
70250;BME280;57644;48.416;-123.374;2022-09-09T13:00:16;101892.74;;;6.38;72.83
70250;BME280;57644;48.416;-123.374;2022-09-09T13:02:47;101891.10;;;6.37;72.91
70250;BME280;57644;48.416;-123.374;2022-09-09T13:05:16;101888.84;;;6.35;72.92
70250;BME280;57644;48.416;-123.374;2022-09-09T13:07:44;101885.55;;;6.32;73.02
70250;BME280;57644;48.416;-123.374;2022-09-09T13:10:18;101885.58;;;6.30;73.14